Burin Sea — VCXN — position and weather

sailwx.info

Track history (hours):
 
Tides and Currents Weather Stations Pressure Air Temp Water Temp Dewpoint Dewpoint Depression Visibility Wind Speed Wind Dir Waves Ship Positions

Burin Sea

Last reported at 2015-Jul-28 21:30 UTC. Time now 2015-Jul-30 00:04 UTC.
Position N 47°32' W 052°31'.

Length 82 m; draft 5.4 m.

Type: Tug. MMSI: 316300000.

Date/timePositionNaut miles runAvg speedWind from/ knotsBaromVisibWave heightAir tempDewpointWater temp
2015-Jul-28 21:30N 47°32' W 052°31'8 6.0
2015-Jul-28 20:09N 47°34' W 052°42'0 0.0
2015-Jul-28 18:23N 47°34' W 052°42'0 0.0
2015-Jul-28 17:29N 47°34' W 052°42'0 0.0
2015-Jul-28 16:24N 47°34' W 052°42'0 0.0
2015-Jul-28 14:31N 47°34' W 052°42'0 0.0
2015-Jul-28 13:32N 47°34' W 052°42'0 0.0
2015-Jul-28 12:33N 47°34' W 052°42'0 0.0
2015-Jul-28 11:33N 47°34' W 052°42'0 0.0
2015-Jul-28 10:28N 47°34' W 052°42'0 0.0
2015-Jul-28 09:29N 47°34' W 052°42'0 0.0
2015-Jul-28 08:29N 47°34' W 052°42'0 0.0
2015-Jul-28 07:30N 47°34' W 052°42'0 0.0
2015-Jul-28 06:31N 47°34' W 052°42'0 0.0
2015-Jul-28 05:31N 47°34' W 052°42'0 0.0
2015-Jul-28 04:26N 47°34' W 052°42'0 0.0
2015-Jul-28 03:33N 47°34' W 052°42'0 0.0
2015-Jul-28 02:33N 47°34' W 052°42'0 0.0
2015-Jul-27 22:06N 47°34' W 052°42'0 0.0
2015-Jul-27 21:13N 47°34' W 052°42'0 0.1
2015-Jul-27 14:32N 47°34' W 052°42'0 0.0
2015-Jul-27 13:29N 47°34' W 052°42'0 0.0
2015-Jul-27 12:32N 47°34' W 052°42'0 0.0
2015-Jul-27 11:33N 47°34' W 052°42'1 1.3
2015-Jul-27 10:31N 47°34' W 052°40'  
2015-Jul-22 23:08N 47°27' W 052°11'610.7
2015-Jul-22 22:32N 47°29' W 052°20'1110.9
2015-Jul-22 21:29N 47°33' W 052°36'4 4.8
2015-Jul-22 20:33N 47°34' W 052°42'0 0.0
2015-Jul-22 19:28N 47°34' W 052°42'0 0.0
2015-Jul-22 17:29N 47°34' W 052°42'0 0.0
2015-Jul-22 15:19N 47°34' W 052°42'0 0.0
2015-Jul-22 14:30N 47°34' W 052°42'0 0.4
2015-Jul-22 13:32N 47°34' W 052°42'0 0.0
2015-Jul-22 12:32N 47°34' W 052°42'0 0.0
2015-Jul-22 11:31N 47°34' W 052°42'0 0.0
2015-Jul-22 10:32N 47°34' W 052°42'0 0.0
2015-Jul-22 09:29N 47°34' W 052°42'0 0.0
2015-Jul-22 08:32N 47°34' W 052°42'8 7.2
2015-Jul-22 07:27N 47°32' W 052°31'10 9.7
2015-Jul-22 06:27N 47°29' W 052°17'  
2015-Jul-19 18:30N 47°28' W 052°15'1111.1
2015-Jul-19 17:30N 47°32' W 052°30'8 8.5
2015-Jul-19 16:31N 47°34' W 052°42'0 0.0
2015-Jul-19 11:21N 47°34' W 052°42'0 0.0
2015-Jul-19 00:28N 47°34' W 052°42'  
Track history (hours):
 
Tides and Currents Weather Stations Pressure Air Temp Water Temp Dewpoint Dewpoint Depression Visibility Wind Speed Wind Dir Waves Ship Positions

Burin Sea

Last reported at 2015-Jul-28 21:30 UTC. Time now 2015-Jul-30 00:04 UTC.
Position N 47°32' W 052°31'.

Length 82 m; draft 5.4 m.

Type: Tug. MMSI: 316300000.

Date/timePositionNaut miles runAvg speedWind from/ knotsBaromVisibWave heightAir tempDewpointWater temp
2015-Jul-28 21:30N 47°32' W 052°31'8 6.0
2015-Jul-28 20:09N 47°34' W 052°42'0 0.0
2015-Jul-28 18:23N 47°34' W 052°42'0 0.0
2015-Jul-28 17:29N 47°34' W 052°42'0 0.0
2015-Jul-28 16:24N 47°34' W 052°42'0 0.0
2015-Jul-28 14:31N 47°34' W 052°42'0 0.0
2015-Jul-28 13:32N 47°34' W 052°42'0 0.0
2015-Jul-28 12:33N 47°34' W 052°42'0 0.0
2015-Jul-28 11:33N 47°34' W 052°42'0 0.0
2015-Jul-28 10:28N 47°34' W 052°42'0 0.0
2015-Jul-28 09:29N 47°34' W 052°42'0 0.0
2015-Jul-28 08:29N 47°34' W 052°42'0 0.0
2015-Jul-28 07:30N 47°34' W 052°42'0 0.0
2015-Jul-28 06:31N 47°34' W 052°42'0 0.0
2015-Jul-28 05:31N 47°34' W 052°42'0 0.0
2015-Jul-28 04:26N 47°34' W 052°42'0 0.0
2015-Jul-28 03:33N 47°34' W 052°42'0 0.0
2015-Jul-28 02:33N 47°34' W 052°42'0 0.0
2015-Jul-27 22:06N 47°34' W 052°42'0 0.0
2015-Jul-27 21:13N 47°34' W 052°42'0 0.1
2015-Jul-27 14:32N 47°34' W 052°42'0 0.0
2015-Jul-27 13:29N 47°34' W 052°42'0 0.0
2015-Jul-27 12:32N 47°34' W 052°42'0 0.0
2015-Jul-27 11:33N 47°34' W 052°42'1 1.3
2015-Jul-27 10:31N 47°34' W 052°40'  
2015-Jul-22 23:08N 47°27' W 052°11'610.7
2015-Jul-22 22:32N 47°29' W 052°20'1110.9
2015-Jul-22 21:29N 47°33' W 052°36'4 4.8
2015-Jul-22 20:33N 47°34' W 052°42'0 0.0
2015-Jul-22 19:28N 47°34' W 052°42'0 0.0
2015-Jul-22 17:29N 47°34' W 052°42'0 0.0
2015-Jul-22 15:19N 47°34' W 052°42'0 0.0
2015-Jul-22 14:30N 47°34' W 052°42'0 0.4
2015-Jul-22 13:32N 47°34' W 052°42'0 0.0
2015-Jul-22 12:32N 47°34' W 052°42'0 0.0
2015-Jul-22 11:31N 47°34' W 052°42'0 0.0
2015-Jul-22 10:32N 47°34' W 052°42'0 0.0
2015-Jul-22 09:29N 47°34' W 052°42'0 0.0
2015-Jul-22 08:32N 47°34' W 052°42'8 7.2
2015-Jul-22 07:27N 47°32' W 052°31'10 9.7
2015-Jul-22 06:27N 47°29' W 052°17'  
2015-Jul-19 18:30N 47°28' W 052°15'1111.1
2015-Jul-19 17:30N 47°32' W 052°30'8 8.5
2015-Jul-19 16:31N 47°34' W 052°42'0 0.0
2015-Jul-19 11:21N 47°34' W 052°42'0 0.0
2015-Jul-19 00:28N 47°34' W 052°42'  

Dump ship's entire track history